sensor_id;sensor_type;location;lat;lon;timestamp;P1;durP1;ratioP1;P2;durP2;ratioP2
21166;SDS011;10741;52.272;9.580;2022-10-16T00:01:51;4.80;;;1.17;;
21166;SDS011;10741;52.272;9.580;2022-10-16T00:04:17;4.23;;;1.23;;
21166;SDS011;10741;52.272;9.580;2022-10-16T00:06:43;7.07;;;1.30;;
21166;SDS011;10741;52.272;9.580;2022-10-16T00:09:09;1.93;;;0.93;;
21166;SDS011;10741;52.272;9.580;2022-10-16T00:11:38;4.73;;;1.03;;
21166;SDS011;10741;52.272;9.580;2022-10-16T00:14:06;1.93;;;1.10;;
21166;SDS011;10741;52.272;9.580;2022-10-16T00:16:34;3.47;;;1.10;;
21166;SDS011;10741;52.272;9.580;2022-10-16T00:19:00;4.50;;;1.20;;
21166;SDS011;10741;52.272;9.580;2022-10-16T00:21:26;2.13;;;0.90;;
21166;SDS011;10741;52.272;9.580;2022-10-16T00:23:54;1.77;;;1.03;;
21166;SDS011;10741;52.272;9.580;2022-10-16T00:26:22;4.60;;;1.33;;
21166;SDS011;10741;52.272;9.580;2022-10-16T00:28:49;1.90;;;0.90;;
21166;SDS011;10741;52.272;9.580;2022-10-16T00:31:16;4.53;;;0.93;;
21166;SDS011;10741;52.272;9.580;2022-10-16T00:33:43;2.37;;;0.97;;
21166;SDS011;10741;52.272;9.580;2022-10-16T00:36:13;1.70;;;1.10;;
21166;SDS011;10741;52.272;9.580;2022-10-16T00:38:41;2.33;;;1.07;;
21166;SDS011;10741;52.272;9.580;2022-10-16T00:41:07;3.17;;;1.20;;
21166;SDS011;10741;52.272;9.580;2022-10-16T00:51:32;2.50;;;1.23;;
21166;SDS011;10741;52.272;9.580;2022-10-16T00:54:00;6.70;;;1.20;;
21166;SDS011;10741;52.272;9.580;2022-10-16T00:56:29;3.30;;;1.10;;
21166;SDS011;10741;52.272;9.580;2022-10-16T00:58:55;2.60;;;1.20;;
21166;SDS011;10741;52.272;9.580;2022-10-16T01:01:20;2.33;;;1.37;;
21166;SDS011;10741;52.272;9.580;2022-10-16T01:03:46;2.97;;;1.43;;
21166;SDS011;10741;52.272;9.580;2022-10-16T01:06:22;5.23;;;1.27;;
21166;SDS011;10741;52.272;9.580;2022-10-16T01:09:20;3.87;;;1.20;;
21166;SDS011;10741;52.272;9.580;2022-10-16T01:28:01;2.53;;;1.50;;
21166;SDS011;10741;52.272;9.580;2022-10-16T01:30:31;4.90;;;1.47;;
21166;SDS011;10741;52.272;9.580;2022-10-16T01:33:03;3.50;;;1.30;;
21166;SDS011;10741;52.272;9.580;2022-10-16T01:35:44;2.90;;;1.40;;
21166;SDS011;10741;52.272;9.580;2022-10-16T01:38:17;5.40;;;1.87;;
21166;SDS011;10741;52.272;9.580;2022-10-16T01:40:47;2.97;;;1.47;;
21166;SDS011;10741;52.272;9.580;2022-10-16T01:43:22;6.27;;;1.70;;
21166;SDS011;10741;52.272;9.580;2022-10-16T01:46:01;3.20;;;1.90;;
21166;SDS011;10741;52.272;9.580;2022-10-16T01:48:27;1.93;;;1.73;;
21166;SDS011;10741;52.272;9.580;2022-10-16T01:51:14;4.67;;;2.27;;
21166;SDS011;10741;52.272;9.580;2022-10-16T01:53:42;2.87;;;1.80;;
21166;SDS011;10741;52.272;9.580;2022-10-16T01:56:12;7.33;;;2.97;;
21166;SDS011;10741;52.272;9.580;2022-10-16T01:58:42;9.67;;;2.30;;
21166;SDS011;10741;52.272;9.580;2022-10-16T02:01:13;5.43;;;2.40;;
21166;SDS011;10741;52.272;9.580;2022-10-16T02:03:42;2.90;;;2.60;;
21166;SDS011;10741;52.272;9.580;2022-10-16T02:06:10;4.90;;;2.60;;
21166;SDS011;10741;52.272;9.580;2022-10-16T02:08:36;5.93;;;2.50;;
21166;SDS011;10741;52.272;9.580;2022-10-16T02:11:03;3.03;;;2.23;;
21166;SDS011;10741;52.272;9.580;2022-10-16T02:13:37;5.40;;;2.73;;
21166;SDS011;10741;52.272;9.580;2022-10-16T02:16:08;4.37;;;2.80;;
21166;SDS011;10741;52.272;9.580;2022-10-16T02:18:35;4.53;;;2.53;;
21166;SDS011;10741;52.272;9.580;2022-10-16T02:21:07;6.90;;;2.77;;
21166;SDS011;10741;52.272;9.580;2022-10-16T02:24:02;3.93;;;2.60;;
21166;SDS011;10741;52.272;9.580;2022-10-16T02:26:38;5.50;;;2.50;;
21166;SDS011;10741;52.272;9.580;2022-10-16T02:29:10;5.63;;;2.40;;
21166;SDS011;10741;52.272;9.580;2022-10-16T02:31:41;5.67;;;2.57;;
21166;SDS011;10741;52.272;9.580;2022-10-16T02:34:10;3.80;;;2.70;;
21166;SDS011;10741;52.272;9.580;2022-10-16T02:36:39;6.10;;;2.60;;
21166;SDS011;10741;52.272;9.580;2022-10-16T02:39:07;2.43;;;2.00;;
21166;SDS011;10741;52.272;9.580;2022-10-16T02:41:34;4.37;;;2.30;;
21166;SDS011;10741;52.272;9.580;2022-10-16T02:44:00;3.10;;;2.43;;
21166;SDS011;10741;52.272;9.580;2022-10-16T02:46:26;4.53;;;2.40;;
21166;SDS011;10741;52.272;9.580;2022-10-16T02:48:52;4.53;;;2.50;;
21166;SDS011;10741;52.272;9.580;2022-10-16T02:51:17;9.00;;;2.53;;
21166;SDS011;10741;52.272;9.580;2022-10-16T02:53:43;4.60;;;2.10;;
21166;SDS011;10741;52.272;9.580;2022-10-16T02:56:09;3.53;;;2.50;;
21166;SDS011;10741;52.272;9.580;2022-10-16T02:58:35;5.73;;;2.20;;
21166;SDS011;10741;52.272;9.580;2022-10-16T03:01:00;4.57;;;2.77;;
21166;SDS011;10741;52.272;9.580;2022-10-16T03:03:26;4.40;;;3.00;;
21166;SDS011;10741;52.272;9.580;2022-10-16T03:05:52;5.23;;;3.23;;
21166;SDS011;10741;52.272;9.580;2022-10-16T03:08:18;4.53;;;2.87;;
21166;SDS011;10741;52.272;9.580;2022-10-16T03:10:48;6.97;;;3.30;;
21166;SDS011;10741;52.272;9.580;2022-10-16T03:13:15;3.60;;;2.63;;
21166;SDS011;10741;52.272;9.580;2022-10-16T03:15:40;4.90;;;2.63;;
21166;SDS011;10741;52.272;9.580;2022-10-16T03:18:06;6.97;;;3.00;;
21166;SDS011;10741;52.272;9.580;2022-10-16T03:20:32;5.43;;;3.00;;
21166;SDS011;10741;52.272;9.580;2022-10-16T03:22:58;5.03;;;2.87;;
21166;SDS011;10741;52.272;9.580;2022-10-16T03:25:23;3.13;;;2.43;;
21166;SDS011;10741;52.272;9.580;2022-10-16T03:27:49;2.90;;;2.60;;
21166;SDS011;10741;52.272;9.580;2022-10-16T03:30:16;3.67;;;2.50;;
21166;SDS011;10741;52.272;9.580;2022-10-16T03:32:43;3.83;;;2.80;;
21166;SDS011;10741;52.272;9.580;2022-10-16T03:35:09;7.07;;;3.07;;
21166;SDS011;10741;52.272;9.580;2022-10-16T03:37:35;7.40;;;3.00;;
21166;SDS011;10741;52.272;9.580;2022-10-16T03:40:02;7.37;;;2.63;;
21166;SDS011;10741;52.272;9.580;2022-10-16T03:42:29;3.97;;;2.70;;
21166;SDS011;10741;52.272;9.580;2022-10-16T03:44:54;6.27;;;2.63;;
21166;SDS011;10741;52.272;9.580;2022-10-16T03:47:20;6.77;;;2.60;;
21166;SDS011;10741;52.272;9.580;2022-10-16T03:49:48;4.53;;;2.47;;
21166;SDS011;10741;52.272;9.580;2022-10-16T03:52:14;4.97;;;2.40;;
21166;SDS011;10741;52.272;9.580;2022-10-16T03:54:40;4.87;;;2.43;;
21166;SDS011;10741;52.272;9.580;2022-10-16T03:57:06;4.37;;;2.57;;
21166;SDS011;10741;52.272;9.580;2022-10-16T03:59:32;6.80;;;2.40;;
21166;SDS011;10741;52.272;9.580;2022-10-16T04:01:58;3.97;;;2.43;;
21166;SDS011;10741;52.272;9.580;2022-10-16T04:04:23;3.30;;;2.47;;
21166;SDS011;10741;52.272;9.580;2022-10-16T04:06:50;4.23;;;2.50;;
21166;SDS011;10741;52.272;9.580;2022-10-16T04:09:16;5.67;;;2.60;;
21166;SDS011;10741;52.272;9.580;2022-10-16T04:11:42;4.53;;;2.60;;
21166;SDS011;10741;52.272;9.580;2022-10-16T04:14:08;7.17;;;3.00;;
21166;SDS011;10741;52.272;9.580;2022-10-16T04:16:33;5.13;;;3.10;;
21166;SDS011;10741;52.272;9.580;2022-10-16T04:18:59;5.17;;;2.90;;
21166;SDS011;10741;52.272;9.580;2022-10-16T04:21:25;5.20;;;2.67;;
21166;SDS011;10741;52.272;9.580;2022-10-16T04:23:51;6.37;;;2.83;;
21166;SDS011;10741;52.272;9.580;2022-10-16T04:26:16;9.17;;;3.17;;
21166;SDS011;10741;52.272;9.580;2022-10-16T04:28:42;9.43;;;3.10;;
21166;SDS011;10741;52.272;9.580;2022-10-16T04:31:08;6.63;;;3.20;;
21166;SDS011;10741;52.272;9.580;2022-10-16T04:33:34;4.03;;;3.23;;
21166;SDS011;10741;52.272;9.580;2022-10-16T04:36:00;4.03;;;3.20;;
21166;SDS011;10741;52.272;9.580;2022-10-16T04:38:27;7.00;;;3.77;;
21166;SDS011;10741;52.272;9.580;2022-10-16T04:40:53;4.07;;;3.33;;
21166;SDS011;10741;52.272;9.580;2022-10-16T04:43:19;8.20;;;3.93;;
21166;SDS011;10741;52.272;9.580;2022-10-16T04:45:45;7.67;;;3.90;;
21166;SDS011;10741;52.272;9.580;2022-10-16T04:48:11;6.33;;;3.53;;
21166;SDS011;10741;52.272;9.580;2022-10-16T04:50:36;5.77;;;3.63;;
21166;SDS011;10741;52.272;9.580;2022-10-16T04:53:02;7.07;;;3.97;;
21166;SDS011;10741;52.272;9.580;2022-10-16T04:55:28;8.23;;;3.50;;
21166;SDS011;10741;52.272;9.580;2022-10-16T04:57:53;4.37;;;3.27;;
21166;SDS011;10741;52.272;9.580;2022-10-16T05:00:19;4.57;;;3.57;;
21166;SDS011;10741;52.272;9.580;2022-10-16T05:02:45;5.27;;;3.57;;
21166;SDS011;10741;52.272;9.580;2022-10-16T05:05:11;9.73;;;3.57;;
21166;SDS011;10741;52.272;9.580;2022-10-16T05:07:37;8.93;;;3.60;;
21166;SDS011;10741;52.272;9.580;2022-10-16T05:10:03;11.37;;;4.10;;
21166;SDS011;10741;52.272;9.580;2022-10-16T05:12:29;8.23;;;3.80;;
21166;SDS011;10741;52.272;9.580;2022-10-16T05:14:55;6.77;;;4.20;;
21166;SDS011;10741;52.272;9.580;2022-10-16T05:17:24;5.57;;;4.17;;
21166;SDS011;10741;52.272;9.580;2022-10-16T05:19:50;9.40;;;3.67;;
21166;SDS011;10741;52.272;9.580;2022-10-16T05:22:16;6.37;;;3.90;;
21166;SDS011;10741;52.272;9.580;2022-10-16T05:24:42;6.43;;;3.73;;
21166;SDS011;10741;52.272;9.580;2022-10-16T05:27:08;8.07;;;4.33;;
21166;SDS011;10741;52.272;9.580;2022-10-16T05:29:34;6.30;;;4.17;;
21166;SDS011;10741;52.272;9.580;2022-10-16T05:32:00;5.73;;;4.07;;
21166;SDS011;10741;52.272;9.580;2022-10-16T05:34:26;5.40;;;3.83;;
21166;SDS011;10741;52.272;9.580;2022-10-16T05:36:52;5.27;;;4.23;;
21166;SDS011;10741;52.272;9.580;2022-10-16T05:39:18;4.93;;;3.60;;
21166;SDS011;10741;52.272;9.580;2022-10-16T05:41:44;5.33;;;3.90;;
21166;SDS011;10741;52.272;9.580;2022-10-16T05:44:10;7.07;;;3.90;;
21166;SDS011;10741;52.272;9.580;2022-10-16T05:46:36;5.73;;;3.87;;
21166;SDS011;10741;52.272;9.580;2022-10-16T05:49:02;5.03;;;3.83;;
21166;SDS011;10741;52.272;9.580;2022-10-16T05:51:28;7.23;;;4.10;;
21166;SDS011;10741;52.272;9.580;2022-10-16T05:53:54;5.80;;;3.73;;
21166;SDS011;10741;52.272;9.580;2022-10-16T05:56:19;5.10;;;3.73;;
21166;SDS011;10741;52.272;9.580;2022-10-16T05:58:45;7.13;;;4.33;;
21166;SDS011;10741;52.272;9.580;2022-10-16T06:01:14;5.43;;;4.50;;
21166;SDS011;10741;52.272;9.580;2022-10-16T06:03:42;4.50;;;4.10;;
21166;SDS011;10741;52.272;9.580;2022-10-16T06:06:12;7.43;;;4.00;;
21166;SDS011;10741;52.272;9.580;2022-10-16T06:08:42;8.20;;;4.07;;
21166;SDS011;10741;52.272;9.580;2022-10-16T06:11:09;5.93;;;4.53;;
21166;SDS011;10741;52.272;9.580;2022-10-16T06:13:37;5.37;;;3.97;;
21166;SDS011;10741;52.272;9.580;2022-10-16T06:16:04;6.77;;;4.13;;
21166;SDS011;10741;52.272;9.580;2022-10-16T06:18:30;9.70;;;4.60;;
21166;SDS011;10741;52.272;9.580;2022-10-16T06:20:56;6.03;;;4.07;;
21166;SDS011;10741;52.272;9.580;2022-10-16T06:23:23;6.10;;;3.87;;
21166;SDS011;10741;52.272;9.580;2022-10-16T06:25:49;4.53;;;3.63;;
21166;SDS011;10741;52.272;9.580;2022-10-16T06:28:15;6.47;;;3.50;;
21166;SDS011;10741;52.272;9.580;2022-10-16T06:30:41;6.07;;;4.10;;
21166;SDS011;10741;52.272;9.580;2022-10-16T06:33:09;4.30;;;3.40;;
21166;SDS011;10741;52.272;9.580;2022-10-16T06:35:35;7.80;;;4.40;;
21166;SDS011;10741;52.272;9.580;2022-10-16T06:38:01;4.50;;;3.80;;
21166;SDS011;10741;52.272;9.580;2022-10-16T06:40:27;6.63;;;3.47;;
21166;SDS011;10741;52.272;9.580;2022-10-16T06:42:54;5.33;;;4.00;;
21166;SDS011;10741;52.272;9.580;2022-10-16T06:45:20;5.73;;;3.70;;
21166;SDS011;10741;52.272;9.580;2022-10-16T06:47:46;3.83;;;3.50;;
21166;SDS011;10741;52.272;9.580;2022-10-16T06:50:11;5.00;;;3.13;;
21166;SDS011;10741;52.272;9.580;2022-10-16T06:52:37;4.77;;;2.57;;
21166;SDS011;10741;52.272;9.580;2022-10-16T06:55:03;3.50;;;2.40;;
21166;SDS011;10741;52.272;9.580;2022-10-16T06:57:29;3.07;;;2.23;;
21166;SDS011;10741;52.272;9.580;2022-10-16T06:59:55;5.50;;;2.30;;
21166;SDS011;10741;52.272;9.580;2022-10-16T07:02:20;2.70;;;1.70;;
21166;SDS011;10741;52.272;9.580;2022-10-16T07:04:46;2.30;;;1.87;;
21166;SDS011;10741;52.272;9.580;2022-10-16T07:07:12;5.57;;;1.80;;
21166;SDS011;10741;52.272;9.580;2022-10-16T07:09:38;4.80;;;1.60;;
21166;SDS011;10741;52.272;9.580;2022-10-16T07:12:05;2.07;;;1.50;;
21166;SDS011;10741;52.272;9.580;2022-10-16T07:14:31;1.47;;;1.27;;
21166;SDS011;10741;52.272;9.580;2022-10-16T07:16:57;2.83;;;1.77;;
21166;SDS011;10741;52.272;9.580;2022-10-16T07:19:22;2.30;;;1.20;;
21166;SDS011;10741;52.272;9.580;2022-10-16T07:21:48;2.27;;;1.20;;
21166;SDS011;10741;52.272;9.580;2022-10-16T07:24:15;2.40;;;1.07;;
21166;SDS011;10741;52.272;9.580;2022-10-16T07:26:45;2.77;;;1.30;;
21166;SDS011;10741;52.272;9.580;2022-10-16T07:29:18;2.20;;;1.40;;
21166;SDS011;10741;52.272;9.580;2022-10-16T07:31:46;2.63;;;1.20;;
21166;SDS011;10741;52.272;9.580;2022-10-16T07:34:14;1.23;;;1.13;;
21166;SDS011;10741;52.272;9.580;2022-10-16T07:36:41;1.27;;;1.10;;
21166;SDS011;10741;52.272;9.580;2022-10-16T07:39:06;2.30;;;1.00;;
21166;SDS011;10741;52.272;9.580;2022-10-16T07:41:33;4.30;;;1.10;;
21166;SDS011;10741;52.272;9.580;2022-10-16T07:44:01;2.03;;;1.00;;
21166;SDS011;10741;52.272;9.580;2022-10-16T07:46:28;2.93;;;0.90;;
21166;SDS011;10741;52.272;9.580;2022-10-16T07:48:55;2.47;;;0.90;;
21166;SDS011;10741;52.272;9.580;2022-10-16T07:51:23;1.37;;;0.90;;
21166;SDS011;10741;52.272;9.580;2022-10-16T07:53:50;1.43;;;0.90;;
21166;SDS011;10741;52.272;9.580;2022-10-16T07:56:17;1.77;;;0.87;;
21166;SDS011;10741;52.272;9.580;2022-10-16T07:58:44;8.33;;;1.30;;
21166;SDS011;10741;52.272;9.580;2022-10-16T08:01:13;1.80;;;0.90;;
21166;SDS011;10741;52.272;9.580;2022-10-16T08:03:44;1.63;;;1.00;;
21166;SDS011;10741;52.272;9.580;2022-10-16T08:06:11;1.00;;;0.90;;
21166;SDS011;10741;52.272;9.580;2022-10-16T08:08:37;2.70;;;1.10;;
21166;SDS011;10741;52.272;9.580;2022-10-16T08:11:03;1.23;;;1.00;;
21166;SDS011;10741;52.272;9.580;2022-10-16T08:13:29;1.20;;;0.97;;
21166;SDS011;10741;52.272;9.580;2022-10-16T08:15:56;1.27;;;1.20;;
21166;SDS011;10741;52.272;9.580;2022-10-16T08:18:21;2.73;;;1.17;;
21166;SDS011;10741;52.272;9.580;2022-10-16T08:20:47;1.60;;;1.20;;
21166;SDS011;10741;52.272;9.580;2022-10-16T08:23:19;2.13;;;0.90;;
21166;SDS011;10741;52.272;9.580;2022-10-16T08:25:48;3.03;;;1.03;;
21166;SDS011;10741;52.272;9.580;2022-10-16T08:28:13;1.13;;;0.97;;
21166;SDS011;10741;52.272;9.580;2022-10-16T08:30:40;0.90;;;0.90;;
21166;SDS011;10741;52.272;9.580;2022-10-16T08:33:06;1.60;;;0.80;;
21166;SDS011;10741;52.272;9.580;2022-10-16T08:35:32;3.83;;;0.70;;
21166;SDS011;10741;52.272;9.580;2022-10-16T08:37:58;1.20;;;1.10;;
21166;SDS011;10741;52.272;9.580;2022-10-16T08:40:25;1.97;;;0.90;;
21166;SDS011;10741;52.272;9.580;2022-10-16T08:43:06;0.80;;;0.67;;
21166;SDS011;10741;52.272;9.580;2022-10-16T08:48:30;2.27;;;1.10;;
21166;SDS011;10741;52.272;9.580;2022-10-16T08:51:02;1.57;;;1.40;;
21166;SDS011;10741;52.272;9.580;2022-10-16T08:56:14;1.50;;;1.00;;
21166;SDS011;10741;52.272;9.580;2022-10-16T08:58:40;2.60;;;0.90;;
21166;SDS011;10741;52.272;9.580;2022-10-16T09:01:11;3.50;;;1.07;;
21166;SDS011;10741;52.272;9.580;2022-10-16T09:03:49;1.13;;;1.00;;
21166;SDS011;10741;52.272;9.580;2022-10-16T09:11:21;2.90;;;0.70;;
21166;SDS011;10741;52.272;9.580;2022-10-16T09:19:49;1.30;;;1.20;;
21166;SDS011;10741;52.272;9.580;2022-10-16T09:22:21;2.97;;;1.10;;
21166;SDS011;10741;52.272;9.580;2022-10-16T09:24:54;2.20;;;1.27;;
21166;SDS011;10741;52.272;9.580;2022-10-16T09:27:24;1.20;;;0.90;;
21166;SDS011;10741;52.272;9.580;2022-10-16T09:29:51;1.53;;;1.00;;
21166;SDS011;10741;52.272;9.580;2022-10-16T09:32:20;2.27;;;1.07;;
21166;SDS011;10741;52.272;9.580;2022-10-16T09:34:48;1.23;;;1.10;;
21166;SDS011;10741;52.272;9.580;2022-10-16T09:37:18;4.53;;;1.00;;
21166;SDS011;10741;52.272;9.580;2022-10-16T09:39:50;1.07;;;0.87;;
21166;SDS011;10741;52.272;9.580;2022-10-16T09:42:17;2.07;;;1.07;;
21166;SDS011;10741;52.272;9.580;2022-10-16T09:44:48;2.10;;;0.70;;
21166;SDS011;10741;52.272;9.580;2022-10-16T09:47:25;1.23;;;0.90;;
21166;SDS011;10741;52.272;9.580;2022-10-16T09:49:57;1.43;;;0.90;;
21166;SDS011;10741;52.272;9.580;2022-10-16T09:52:27;1.83;;;0.90;;
21166;SDS011;10741;52.272;9.580;2022-10-16T09:57:21;1.60;;;0.87;;
21166;SDS011;10741;52.272;9.580;2022-10-16T09:59:54;1.47;;;0.97;;
21166;SDS011;10741;52.272;9.580;2022-10-16T10:02:31;1.77;;;0.80;;
21166;SDS011;10741;52.272;9.580;2022-10-16T10:05:00;1.57;;;0.90;;
21166;SDS011;10741;52.272;9.580;2022-10-16T10:07:27;2.93;;;0.97;;
21166;SDS011;10741;52.272;9.580;2022-10-16T10:09:59;1.57;;;0.70;;
21166;SDS011;10741;52.272;9.580;2022-10-16T10:12:27;1.70;;;0.83;;
21166;SDS011;10741;52.272;9.580;2022-10-16T10:14:57;1.70;;;0.83;;
21166;SDS011;10741;52.272;9.580;2022-10-16T10:17:29;3.17;;;0.80;;
21166;SDS011;10741;52.272;9.580;2022-10-16T10:19:59;1.83;;;0.60;;
21166;SDS011;10741;52.272;9.580;2022-10-16T10:27:48;4.00;;;0.93;;
21166;SDS011;10741;52.272;9.580;2022-10-16T10:38:50;3.67;;;0.90;;
21166;SDS011;10741;52.272;9.580;2022-10-16T10:49:38;4.13;;;1.20;;
21166;SDS011;10741;52.272;9.580;2022-10-16T11:00:42;4.97;;;0.80;;
21166;SDS011;10741;52.272;9.580;2022-10-16T11:06:23;1.27;;;0.80;;
21166;SDS011;10741;52.272;9.580;2022-10-16T11:09:02;3.13;;;0.87;;
21166;SDS011;10741;52.272;9.580;2022-10-16T11:17:15;4.40;;;1.00;;
21166;SDS011;10741;52.272;9.580;2022-10-16T11:22:55;3.60;;;0.73;;
21166;SDS011;10741;52.272;9.580;2022-10-16T11:25:26;1.60;;;0.67;;
21166;SDS011;10741;52.272;9.580;2022-10-16T11:27:58;1.63;;;0.77;;
21166;SDS011;10741;52.272;9.580;2022-10-16T11:30:40;1.97;;;0.90;;
21166;SDS011;10741;52.272;9.580;2022-10-16T11:33:20;2.40;;;0.70;;
21166;SDS011;10741;52.272;9.580;2022-10-16T11:38:49;2.13;;;0.73;;
21166;SDS011;10741;52.272;9.580;2022-10-16T11:49:46;1.83;;;0.80;;
21166;SDS011;10741;52.272;9.580;2022-10-16T11:52:36;2.23;;;0.80;;
21166;SDS011;10741;52.272;9.580;2022-10-16T11:55:05;0.93;;;0.87;;
21166;SDS011;10741;52.272;9.580;2022-10-16T11:57:45;1.37;;;0.80;;
21166;SDS011;10741;52.272;9.580;2022-10-16T12:00:24;2.23;;;0.90;;
21166;SDS011;10741;52.272;9.580;2022-10-16T12:08:09;0.97;;;0.77;;
21166;SDS011;10741;52.272;9.580;2022-10-16T12:10:39;3.87;;;1.00;;
21166;SDS011;10741;52.272;9.580;2022-10-16T12:13:40;2.40;;;1.00;;
21166;SDS011;10741;52.272;9.580;2022-10-16T12:16:07;1.57;;;1.03;;
21166;SDS011;10741;52.272;9.580;2022-10-16T12:18:46;2.73;;;0.77;;
21166;SDS011;10741;52.272;9.580;2022-10-16T12:21:14;4.03;;;1.00;;
21166;SDS011;10741;52.272;9.580;2022-10-16T12:26:24;1.70;;;0.43;;
21166;SDS011;10741;52.272;9.580;2022-10-16T12:28:51;1.87;;;0.50;;
21166;SDS011;10741;52.272;9.580;2022-10-16T12:31:18;2.83;;;0.53;;
21166;SDS011;10741;52.272;9.580;2022-10-16T12:36:27;1.17;;;0.53;;
21166;SDS011;10741;52.272;9.580;2022-10-16T12:38:58;4.93;;;0.70;;
21166;SDS011;10741;52.272;9.580;2022-10-16T12:43:55;2.77;;;0.70;;
21166;SDS011;10741;52.272;9.580;2022-10-16T12:46:23;1.70;;;0.43;;
21166;SDS011;10741;52.272;9.580;2022-10-16T12:51:38;2.83;;;0.67;;
21166;SDS011;10741;52.272;9.580;2022-10-16T12:54:11;4.47;;;0.63;;
21166;SDS011;10741;52.272;9.580;2022-10-16T13:04:53;0.90;;;0.70;;
21166;SDS011;10741;52.272;9.580;2022-10-16T13:22:26;2.97;;;0.57;;
21166;SDS011;10741;52.272;9.580;2022-10-16T13:24:51;2.60;;;0.60;;
21166;SDS011;10741;52.272;9.580;2022-10-16T13:30:08;3.03;;;0.43;;
21166;SDS011;10741;52.272;9.580;2022-10-16T13:32:47;2.37;;;0.50;;
21166;SDS011;10741;52.272;9.580;2022-10-16T13:35:23;4.97;;;0.60;;
21166;SDS011;10741;52.272;9.580;2022-10-16T13:38:02;1.83;;;0.60;;
21166;SDS011;10741;52.272;9.580;2022-10-16T13:40:48;1.10;;;0.67;;
21166;SDS011;10741;52.272;9.580;2022-10-16T13:43:35;3.43;;;0.70;;
21166;SDS011;10741;52.272;9.580;2022-10-16T13:46:17;1.50;;;0.60;;
21166;SDS011;10741;52.272;9.580;2022-10-16T13:48:44;1.43;;;0.53;;
21166;SDS011;10741;52.272;9.580;2022-10-16T13:51:21;2.80;;;0.70;;
21166;SDS011;10741;52.272;9.580;2022-10-16T13:53:47;1.13;;;0.60;;
21166;SDS011;10741;52.272;9.580;2022-10-16T13:56:14;5.47;;;1.00;;
21166;SDS011;10741;52.272;9.580;2022-10-16T13:58:41;1.40;;;0.70;;
21166;SDS011;10741;52.272;9.580;2022-10-16T14:01:18;0.97;;;0.60;;
21166;SDS011;10741;52.272;9.580;2022-10-16T14:04:07;2.20;;;0.60;;
21166;SDS011;10741;52.272;9.580;2022-10-16T14:06:35;3.03;;;0.50;;
21166;SDS011;10741;52.272;9.580;2022-10-16T14:11:56;2.83;;;0.60;;
21166;SDS011;10741;52.272;9.580;2022-10-16T14:14:41;1.63;;;0.53;;
21166;SDS011;10741;52.272;9.580;2022-10-16T14:17:16;1.87;;;0.50;;
21166;SDS011;10741;52.272;9.580;2022-10-16T14:19:52;2.97;;;0.60;;
21166;SDS011;10741;52.272;9.580;2022-10-16T14:22:32;3.33;;;0.57;;
21166;SDS011;10741;52.272;9.580;2022-10-16T14:27:44;2.50;;;0.60;;
21166;SDS011;10741;52.272;9.580;2022-10-16T14:33:03;1.50;;;0.60;;
21166;SDS011;10741;52.272;9.580;2022-10-16T14:35:37;2.00;;;0.57;;
21166;SDS011;10741;52.272;9.580;2022-10-16T14:38:04;2.80;;;0.40;;
21166;SDS011;10741;52.272;9.580;2022-10-16T14:40:32;2.27;;;0.60;;
21166;SDS011;10741;52.272;9.580;2022-10-16T14:43:03;1.57;;;0.53;;
21166;SDS011;10741;52.272;9.580;2022-10-16T14:45:31;1.13;;;0.53;;
21166;SDS011;10741;52.272;9.580;2022-10-16T14:47:59;2.07;;;0.50;;
21166;SDS011;10741;52.272;9.580;2022-10-16T14:50:31;2.30;;;0.70;;
21166;SDS011;10741;52.272;9.580;2022-10-16T14:52:57;0.87;;;0.50;;
21166;SDS011;10741;52.272;9.580;2022-10-16T14:55:24;0.80;;;0.60;;
21166;SDS011;10741;52.272;9.580;2022-10-16T14:57:50;1.33;;;0.60;;
21166;SDS011;10741;52.272;9.580;2022-10-16T15:00:17;2.03;;;0.53;;
21166;SDS011;10741;52.272;9.580;2022-10-16T15:02:46;2.60;;;0.70;;
21166;SDS011;10741;52.272;9.580;2022-10-16T15:05:15;0.87;;;0.77;;
21166;SDS011;10741;52.272;9.580;2022-10-16T15:07:43;2.73;;;0.90;;
21166;SDS011;10741;52.272;9.580;2022-10-16T15:10:09;1.73;;;0.80;;
21166;SDS011;10741;52.272;9.580;2022-10-16T15:12:35;1.70;;;1.60;;
21166;SDS011;10741;52.272;9.580;2022-10-16T15:15:01;2.90;;;1.40;;
21166;SDS011;10741;52.272;9.580;2022-10-16T15:17:40;1.53;;;1.20;;
21166;SDS011;10741;52.272;9.580;2022-10-16T15:20:06;1.50;;;1.23;;
21166;SDS011;10741;52.272;9.580;2022-10-16T15:22:32;1.40;;;0.83;;
21166;SDS011;10741;52.272;9.580;2022-10-16T15:24:58;2.10;;;1.00;;
21166;SDS011;10741;52.272;9.580;2022-10-16T15:27:23;4.23;;;1.03;;
21166;SDS011;10741;52.272;9.580;2022-10-16T15:29:49;1.40;;;0.93;;
21166;SDS011;10741;52.272;9.580;2022-10-16T15:32:15;2.27;;;1.27;;
21166;SDS011;10741;52.272;9.580;2022-10-16T15:34:40;2.73;;;1.00;;
21166;SDS011;10741;52.272;9.580;2022-10-16T15:37:08;1.30;;;0.83;;
21166;SDS011;10741;52.272;9.580;2022-10-16T15:39:34;2.37;;;0.67;;
21166;SDS011;10741;52.272;9.580;2022-10-16T15:42:00;3.23;;;1.10;;
21166;SDS011;10741;52.272;9.580;2022-10-16T15:44:25;2.10;;;0.80;;
21166;SDS011;10741;52.272;9.580;2022-10-16T15:46:55;3.30;;;0.87;;
21166;SDS011;10741;52.272;9.580;2022-10-16T15:49:21;1.70;;;0.87;;
21166;SDS011;10741;52.272;9.580;2022-10-16T15:51:47;2.63;;;0.80;;
21166;SDS011;10741;52.272;9.580;2022-10-16T15:54:13;4.60;;;0.97;;
21166;SDS011;10741;52.272;9.580;2022-10-16T15:56:38;3.57;;;0.97;;
21166;SDS011;10741;52.272;9.580;2022-10-16T15:59:04;1.43;;;0.67;;
21166;SDS011;10741;52.272;9.580;2022-10-16T16:01:33;2.37;;;0.60;;
21166;SDS011;10741;52.272;9.580;2022-10-16T16:04:00;2.23;;;0.80;;
21166;SDS011;10741;52.272;9.580;2022-10-16T16:06:25;5.10;;;0.90;;
21166;SDS011;10741;52.272;9.580;2022-10-16T16:08:52;2.10;;;0.70;;
21166;SDS011;10741;52.272;9.580;2022-10-16T16:11:18;2.77;;;1.03;;
21166;SDS011;10741;52.272;9.580;2022-10-16T16:13:45;2.67;;;1.07;;
21166;SDS011;10741;52.272;9.580;2022-10-16T16:16:12;2.50;;;0.90;;
21166;SDS011;10741;52.272;9.580;2022-10-16T16:18:39;3.67;;;1.30;;
21166;SDS011;10741;52.272;9.580;2022-10-16T16:21:05;3.47;;;1.40;;
21166;SDS011;10741;52.272;9.580;2022-10-16T16:23:31;3.17;;;1.10;;
21166;SDS011;10741;52.272;9.580;2022-10-16T16:28:53;3.23;;;0.90;;
21166;SDS011;10741;52.272;9.580;2022-10-16T16:31:20;2.90;;;0.90;;
21166;SDS011;10741;52.272;9.580;2022-10-16T16:33:49;5.67;;;1.07;;
21166;SDS011;10741;52.272;9.580;2022-10-16T16:36:16;2.97;;;1.23;;
21166;SDS011;10741;52.272;9.580;2022-10-16T16:38:43;5.17;;;1.70;;
21166;SDS011;10741;52.272;9.580;2022-10-16T16:41:13;2.67;;;1.13;;
21166;SDS011;10741;52.272;9.580;2022-10-16T16:43:40;6.17;;;1.63;;
21166;SDS011;10741;52.272;9.580;2022-10-16T16:46:06;2.57;;;1.53;;
21166;SDS011;10741;52.272;9.580;2022-10-16T16:48:32;6.30;;;1.80;;
21166;SDS011;10741;52.272;9.580;2022-10-16T16:51:10;6.13;;;2.30;;
21166;SDS011;10741;52.272;9.580;2022-10-16T16:53:40;6.17;;;2.40;;
21166;SDS011;10741;52.272;9.580;2022-10-16T16:56:06;11.33;;;5.30;;
21166;SDS011;10741;52.272;9.580;2022-10-16T16:58:32;7.43;;;4.40;;
21166;SDS011;10741;52.272;9.580;2022-10-16T17:00:58;8.70;;;4.83;;
21166;SDS011;10741;52.272;9.580;2022-10-16T17:03:31;9.17;;;4.37;;
21166;SDS011;10741;52.272;9.580;2022-10-16T17:06:02;8.67;;;4.47;;
21166;SDS011;10741;52.272;9.580;2022-10-16T17:08:28;5.47;;;3.70;;
21166;SDS011;10741;52.272;9.580;2022-10-16T17:10:55;21.80;;;13.43;;
21166;SDS011;10741;52.272;9.580;2022-10-16T17:13:25;9.73;;;6.83;;
21166;SDS011;10741;52.272;9.580;2022-10-16T17:15:52;9.33;;;4.63;;
21166;SDS011;10741;52.272;9.580;2022-10-16T17:18:19;6.97;;;2.47;;
21166;SDS011;10741;52.272;9.580;2022-10-16T17:20:46;1.97;;;1.20;;
21166;SDS011;10741;52.272;9.580;2022-10-16T17:23:13;4.03;;;1.33;;
21166;SDS011;10741;52.272;9.580;2022-10-16T17:25:39;3.13;;;1.30;;
21166;SDS011;10741;52.272;9.580;2022-10-16T17:28:06;5.43;;;1.53;;